createdAt,value
2017-12-17T00:01:05.179Z,3.00
2017-12-17T00:03:32.739Z,2.62
2017-12-17T00:06:00.237Z,2.58
2017-12-17T00:08:27.719Z,2.85
2017-12-17T00:10:55.209Z,2.80
2017-12-17T00:13:23.494Z,2.83
2017-12-17T00:15:51.787Z,3.45
2017-12-17T00:18:19.431Z,2.20
2017-12-17T00:20:47.810Z,4.85
2017-12-17T00:23:16.114Z,1.70
2017-12-17T00:25:43.676Z,2.60
2017-12-17T00:28:11.135Z,2.03
2017-12-17T00:30:38.628Z,2.47
2017-12-17T00:33:06.117Z,1.92
2017-12-17T00:35:34.358Z,1.85
2017-12-17T00:38:01.874Z,1.83
2017-12-17T00:40:29.453Z,2.12
2017-12-17T00:42:57.002Z,2.00
2017-12-17T00:45:24.461Z,2.10
2017-12-17T00:47:51.934Z,2.87
2017-12-17T00:50:19.603Z,2.33
2017-12-17T00:52:47.125Z,2.20
2017-12-17T00:55:14.963Z,2.12
2017-12-17T00:57:42.561Z,1.70
2017-12-17T01:00:10.047Z,1.73
2017-12-17T01:02:37.538Z,3.80
2017-12-17T01:05:05.786Z,1.60
2017-12-17T01:07:33.367Z,2.65
2017-12-17T01:10:02.334Z,2.40
2017-12-17T01:12:29.937Z,1.95
2017-12-17T01:14:57.469Z,2.03
2017-12-17T01:17:24.941Z,1.85
2017-12-17T01:19:53.187Z,2.00
2017-12-17T01:22:20.670Z,1.62
2017-12-17T01:24:48.913Z,1.75
2017-12-17T01:27:16.409Z,2.45
2017-12-17T01:29:44.666Z,2.05
2017-12-17T01:32:13.098Z,1.60
2017-12-17T01:34:40.662Z,1.52
2017-12-17T01:37:08.266Z,1.98
2017-12-17T01:39:35.722Z,1.95
2017-12-17T01:42:03.974Z,1.70
2017-12-17T01:44:31.463Z,1.73
2017-12-17T01:46:59.714Z,2.15
2017-12-17T01:49:27.947Z,1.70
2017-12-17T01:51:55.422Z,1.58
2017-12-17T01:54:22.954Z,1.80
2017-12-17T01:56:50.470Z,1.45
2017-12-17T01:59:18.003Z,1.30
2017-12-17T02:01:45.570Z,1.30
2017-12-17T02:04:13.130Z,1.90
2017-12-17T02:06:40.686Z,2.05
2017-12-17T02:09:08.241Z,1.50
2017-12-17T02:11:36.638Z,1.50
2017-12-17T02:14:04.152Z,1.40
2017-12-17T02:16:31.622Z,1.40
2017-12-17T02:18:59.106Z,1.62
2017-12-17T02:21:26.589Z,1.67
2017-12-17T02:23:54.838Z,1.67
2017-12-17T02:26:22.408Z,1.40
2017-12-17T02:28:50.775Z,1.70
2017-12-17T02:31:18.524Z,1.48
2017-12-17T02:33:45.979Z,1.40
2017-12-17T02:36:13.547Z,3.45
2017-12-17T02:38:41.149Z,1.50
2017-12-17T02:41:08.666Z,2.35
2017-12-17T02:43:36.355Z,1.45
2017-12-17T02:46:04.033Z,2.12
2017-12-17T02:48:32.262Z,1.27
2017-12-17T02:50:59.735Z,1.87
2017-12-17T02:53:27.973Z,1.55
2017-12-17T02:55:55.454Z,1.75
2017-12-17T02:58:22.943Z,1.60
2017-12-17T03:00:51.194Z,1.20
2017-12-17T03:03:18.893Z,1.40
2017-12-17T03:05:46.522Z,1.42
2017-12-17T03:08:14.001Z,1.58
2017-12-17T03:10:41.484Z,3.40
2017-12-17T03:13:08.966Z,1.20
2017-12-17T03:15:36.612Z,1.65
2017-12-17T03:18:04.171Z,1.15
2017-12-17T03:20:31.853Z,2.80
2017-12-17T03:22:59.313Z,1.52
2017-12-17T03:25:26.803Z,1.55
2017-12-17T03:27:55.042Z,1.30
2017-12-17T03:30:22.698Z,1.48
2017-12-17T03:32:50.438Z,1.27
2017-12-17T03:35:18.127Z,1.20
2017-12-17T03:37:45.766Z,1.20
2017-12-17T03:40:13.238Z,1.05
2017-12-17T03:42:40.733Z,2.42
2017-12-17T03:45:08.994Z,1.33
2017-12-17T03:47:36.475Z,1.10
2017-12-17T03:50:04.004Z,1.23
2017-12-17T03:52:31.534Z,1.30
2017-12-17T03:54:59.019Z,2.22
2017-12-17T03:57:26.571Z,1.30
2017-12-17T03:59:54.054Z,1.00
2017-12-17T04:02:22.395Z,1.35
2017-12-17T04:04:49.950Z,1.60
2017-12-17T04:07:17.569Z,1.40
2017-12-17T04:09:45.083Z,1.20
2017-12-17T04:12:12.635Z,1.55
2017-12-17T04:14:40.122Z,1.35
2017-12-17T04:17:08.387Z,1.27
2017-12-17T04:19:35.857Z,1.27
2017-12-17T04:22:04.374Z,1.27
2017-12-17T04:24:31.858Z,1.30
2017-12-17T04:26:59.439Z,1.35
2017-12-17T04:29:26.992Z,1.20
2017-12-17T04:31:54.454Z,1.90
2017-12-17T04:34:21.935Z,1.37
2017-12-17T04:36:50.161Z,2.42
2017-12-17T04:39:17.821Z,1.10
2017-12-17T04:41:45.357Z,1.37
2017-12-17T04:44:12.943Z,1.92
2017-12-17T04:46:40.398Z,1.33
2017-12-17T04:49:07.877Z,1.60
2017-12-17T04:51:35.413Z,2.22
2017-12-17T04:54:02.936Z,1.60
2017-12-17T04:56:30.714Z,1.02
2017-12-17T04:58:58.293Z,1.27
2017-12-17T05:01:25.753Z,1.42
2017-12-17T05:03:53.246Z,2.03
2017-12-17T05:06:21.482Z,1.50
2017-12-17T05:08:48.966Z,1.20
2017-12-17T05:11:17.219Z,1.20
2017-12-17T05:13:44.722Z,2.17
2017-12-17T05:16:12.347Z,1.12
2017-12-17T05:18:39.933Z,1.40
2017-12-17T05:21:07.442Z,2.55
2017-12-17T05:23:34.934Z,2.78
2017-12-17T05:26:03.178Z,1.35
2017-12-17T05:28:30.703Z,1.25
2017-12-17T05:30:58.295Z,1.92
2017-12-17T05:33:25.837Z,2.08
2017-12-17T05:35:53.314Z,1.52
2017-12-17T05:38:20.804Z,1.48
2017-12-17T05:40:48.279Z,1.35
2017-12-17T05:43:15.886Z,2.78
2017-12-17T05:45:43.450Z,2.30
2017-12-17T05:48:11.010Z,1.40
2017-12-17T05:50:38.486Z,1.20
2017-12-17T05:53:06.730Z,2.20
2017-12-17T05:55:34.201Z,1.42
2017-12-17T05:58:01.702Z,1.20
2017-12-17T06:00:29.338Z,1.40
2017-12-17T06:02:58.118Z,2.25
2017-12-17T06:05:26.553Z,1.98
2017-12-17T06:07:54.202Z,1.77
2017-12-17T06:10:21.668Z,2.00
2017-12-17T06:12:49.151Z,1.33
2017-12-17T06:15:16.641Z,1.67
2017-12-17T06:17:44.870Z,4.12
2017-12-17T06:20:12.371Z,4.20
2017-12-17T06:22:40.836Z,2.45
2017-12-17T06:25:08.456Z,1.10
2017-12-17T06:27:35.974Z,1.30
2017-12-17T06:30:03.438Z,2.50
2017-12-17T06:32:31.685Z,1.30
2017-12-17T06:34:59.157Z,1.10
2017-12-17T06:37:27.411Z,1.10
2017-12-17T06:39:55.005Z,1.23
2017-12-17T06:42:22.464Z,1.35
2017-12-17T06:44:50.774Z,2.12
2017-12-17T06:47:18.242Z,1.23
2017-12-17T06:49:45.718Z,1.17
2017-12-17T06:52:13.234Z,1.30
2017-12-17T06:54:40.885Z,1.92
2017-12-17T06:57:09.311Z,1.55
2017-12-17T06:59:38.533Z,1.40
2017-12-17T07:02:06.786Z,1.17
2017-12-17T07:04:34.680Z,1.15
2017-12-17T07:07:02.970Z,1.17
2017-12-17T07:09:31.378Z,1.05
2017-12-17T07:11:58.866Z,1.42
2017-12-17T07:14:26.355Z,2.97
2017-12-17T07:16:54.614Z,1.20
2017-12-17T07:19:22.095Z,1.25
2017-12-17T07:21:49.594Z,1.10
2017-12-17T07:24:17.123Z,1.48
2017-12-17T07:26:44.610Z,1.65
2017-12-17T07:29:12.098Z,1.85
2017-12-17T07:31:39.634Z,1.30
2017-12-17T07:34:07.187Z,1.20
2017-12-17T07:36:34.762Z,1.65
2017-12-17T07:39:02.318Z,1.50
2017-12-17T07:41:29.844Z,1.10
2017-12-17T07:43:57.318Z,3.50
2017-12-17T07:46:24.806Z,0.98
2017-12-17T07:48:52.506Z,2.55
2017-12-17T07:51:20.764Z,1.75
2017-12-17T07:53:50.096Z,1.65
2017-12-17T07:56:17.922Z,1.98
2017-12-17T07:58:46.418Z,1.58
2017-12-17T08:01:14.071Z,1.10
2017-12-17T08:03:42.675Z,1.10
2017-12-17T08:06:10.218Z,3.05
2017-12-17T08:08:38.446Z,1.45
2017-12-17T08:11:05.993Z,1.23
2017-12-17T08:13:33.486Z,1.10
2017-12-17T08:16:01.754Z,1.73
2017-12-17T08:18:29.250Z,1.12
2017-12-17T08:20:56.734Z,1.98
2017-12-17T08:23:24.370Z,2.10
2017-12-17T08:25:52.679Z,1.30
2017-12-17T08:28:20.156Z,1.10
2017-12-17T08:30:47.649Z,2.85
2017-12-17T08:33:15.155Z,2.03
2017-12-17T08:35:42.635Z,1.40
2017-12-17T08:38:10.138Z,1.65
2017-12-17T08:40:38.478Z,1.90
2017-12-17T08:43:06.174Z,1.85
2017-12-17T08:45:34.397Z,1.45
2017-12-17T08:48:01.895Z,1.05
2017-12-17T08:50:30.145Z,1.90
2017-12-17T08:52:57.707Z,1.30
2017-12-17T08:55:25.226Z,1.40
2017-12-17T08:57:52.786Z,1.52
2017-12-17T09:00:20.260Z,1.20
2017-12-17T09:02:47.768Z,1.30
2017-12-17T09:05:15.363Z,1.40
2017-12-17T09:07:42.855Z,2.28
2017-12-17T09:10:10.554Z,1.62
2017-12-17T09:12:38.050Z,10.35
2017-12-17T09:15:05.540Z,37.92
2017-12-17T09:17:33.852Z,108.28
2017-12-17T09:20:01.440Z,105.85
2017-12-17T09:22:28.917Z,68.78
2017-12-17T09:24:57.173Z,49.63
2017-12-17T09:27:24.718Z,36.28
2017-12-17T09:29:53.031Z,30.10
2017-12-17T09:32:21.398Z,21.17
2017-12-17T09:34:48.888Z,16.17
2017-12-17T09:37:16.404Z,22.25
2017-12-17T09:39:43.901Z,29.02
2017-12-17T09:42:12.391Z,46.35
2017-12-17T09:44:39.912Z,29.55
2017-12-17T09:47:07.375Z,40.20
2017-12-17T09:49:34.864Z,19.60
2017-12-17T09:52:02.351Z,55.08
2017-12-17T09:54:30.018Z,27.15
2017-12-17T09:56:57.498Z,29.20
2017-12-17T09:59:25.024Z,19.62
2017-12-17T10:01:52.503Z,19.05
2017-12-17T10:04:20.050Z,13.88
2017-12-17T10:06:47.514Z,68.37
2017-12-17T10:09:15.413Z,65.05
2017-12-17T10:11:42.870Z,20.67
2017-12-17T10:14:11.165Z,26.75
2017-12-17T10:16:38.648Z,63.15
2017-12-17T10:19:06.178Z,753.05
2017-12-17T10:21:33.763Z,437.98
2017-12-17T10:24:01.257Z,333.83
2017-12-17T10:26:28.747Z,297.08
2017-12-17T10:28:56.269Z,262.73
2017-12-17T10:31:23.768Z,179.73
2017-12-17T10:33:51.296Z,151.50
2017-12-17T10:36:18.806Z,166.88
2017-12-17T10:38:46.387Z,69.20
2017-12-17T10:41:13.885Z,164.50
2017-12-17T10:43:42.162Z,205.40
2017-12-17T10:46:10.534Z,125.15
2017-12-17T10:48:37.998Z,60.58
2017-12-17T10:51:06.340Z,42.15
2017-12-17T10:53:33.843Z,44.13
2017-12-17T10:56:01.486Z,50.03
2017-12-17T10:58:29.741Z,35.15
2017-12-17T11:00:57.295Z,30.40
2017-12-17T11:03:24.796Z,20.65
2017-12-17T11:05:52.283Z,11.93
2017-12-17T11:08:19.866Z,12.13
2017-12-17T11:10:47.470Z,13.18
2017-12-17T11:13:15.722Z,10.32
2017-12-17T11:15:44.023Z,5.15
2017-12-17T11:18:11.499Z,7.57
2017-12-17T11:20:39.115Z,7.00
2017-12-17T11:23:07.378Z,12.55
2017-12-17T11:25:35.001Z,10.80
2017-12-17T11:28:02.497Z,7.50
2017-12-17T11:30:29.974Z,14.27
2017-12-17T11:32:58.303Z,7.85
2017-12-17T11:35:25.774Z,5.93
2017-12-17T11:37:53.356Z,4.80
2017-12-17T11:40:20.829Z,3.58
2017-12-17T11:42:49.262Z,4.70
2017-12-17T11:45:16.730Z,8.00
2017-12-17T11:47:44.281Z,4.65
2017-12-17T11:50:11.765Z,2.67
2017-12-17T11:52:39.433Z,2.90
2017-12-17T11:55:07.063Z,2.53
2017-12-17T11:57:34.588Z,2.17
2017-12-17T12:00:02.087Z,4.07
2017-12-17T12:02:29.663Z,3.30
2017-12-17T12:04:57.129Z,3.60
2017-12-17T12:07:25.561Z,5.12
2017-12-17T12:09:54.178Z,3.78
2017-12-17T12:12:21.776Z,2.35
2017-12-17T12:14:49.383Z,3.92
2017-12-17T12:17:16.852Z,3.55
2017-12-17T12:19:44.350Z,2.80
2017-12-17T12:22:11.910Z,2.95
2017-12-17T12:24:39.377Z,4.10
2017-12-17T12:27:07.007Z,4.62
2017-12-17T12:29:35.245Z,2.58
2017-12-17T12:32:02.713Z,3.22
2017-12-17T12:34:30.214Z,4.97
2017-12-17T12:36:57.729Z,2.45
2017-12-17T12:39:25.206Z,4.53
2017-12-17T12:41:53.602Z,2.60
2017-12-17T12:44:21.823Z,2.60
2017-12-17T12:46:49.302Z,2.47
2017-12-17T12:49:16.779Z,5.60
2017-12-17T12:51:45.043Z,4.72
2017-12-17T12:54:13.287Z,3.15
2017-12-17T12:56:40.790Z,2.97
2017-12-17T12:59:08.289Z,3.58
2017-12-17T13:01:35.770Z,2.50
2017-12-17T13:04:03.308Z,2.30
2017-12-17T13:06:30.777Z,2.95
2017-12-17T13:08:58.268Z,5.12
2017-12-17T13:11:26.770Z,3.42
2017-12-17T13:13:54.373Z,2.30
2017-12-17T13:16:21.870Z,4.25
2017-12-17T13:18:50.106Z,3.78
2017-12-17T13:21:17.595Z,7.45
2017-12-17T13:23:45.841Z,13.02
2017-12-17T13:26:13.329Z,3.15
2017-12-17T13:28:41.570Z,4.18
2017-12-17T13:31:09.142Z,2.37
2017-12-17T13:33:36.684Z,8.70
2017-12-17T13:36:04.160Z,4.53
2017-12-17T13:38:31.652Z,10.00
2017-12-17T13:40:59.124Z,7.45
2017-12-17T13:43:26.699Z,7.22
2017-12-17T13:45:54.260Z,2.67
2017-12-17T13:48:21.757Z,2.30
2017-12-17T13:50:49.309Z,6.75
2017-12-17T13:53:16.747Z,2.95
2017-12-17T13:55:44.338Z,3.35
2017-12-17T13:58:12.710Z,5.80
2017-12-17T14:00:41.083Z,3.20
2017-12-17T14:03:09.650Z,2.72
2017-12-17T14:05:37.217Z,3.53
2017-12-17T14:08:04.691Z,2.62
2017-12-17T14:10:32.938Z,2.35
2017-12-17T14:13:00.419Z,2.83
2017-12-17T14:15:28.679Z,2.10
2017-12-17T14:17:56.213Z,5.82
2017-12-17T14:20:23.806Z,3.58
2017-12-17T14:22:52.084Z,2.97
2017-12-17T14:25:19.561Z,2.55
2017-12-17T14:27:47.803Z,3.90
2017-12-17T14:30:16.036Z,1.60
2017-12-17T14:32:43.518Z,2.67
2017-12-17T14:35:11.022Z,2.28
2017-12-17T14:37:39.267Z,3.55
2017-12-17T14:40:06.797Z,3.17
2017-12-17T14:42:34.399Z,5.80
2017-12-17T14:45:01.862Z,2.70
2017-12-17T14:47:30.126Z,4.53
2017-12-17T14:49:58.369Z,5.72
2017-12-17T14:52:25.858Z,5.10
2017-12-17T14:54:54.933Z,4.10
2017-12-17T14:57:23.330Z,8.30
2017-12-17T14:59:52.571Z,5.78
2017-12-17T15:02:20.100Z,5.00
2017-12-17T15:04:48.413Z,4.93
2017-12-17T15:07:16.019Z,8.05
2017-12-17T15:09:44.424Z,5.80
2017-12-17T15:12:12.700Z,2.60
2017-12-17T15:14:40.194Z,2.95
2017-12-17T15:17:07.686Z,2.55
2017-12-17T15:19:35.167Z,2.67
2017-12-17T15:22:02.726Z,3.15
2017-12-17T15:24:30.256Z,2.95
2017-12-17T15:26:57.730Z,3.47
2017-12-17T15:29:25.209Z,4.75
2017-12-17T15:31:52.706Z,3.40
2017-12-17T15:34:20.210Z,4.80
2017-12-17T15:36:48.438Z,4.35
2017-12-17T15:39:16.074Z,1.83
2017-12-17T15:41:43.643Z,5.07
2017-12-17T15:44:11.119Z,2.97
2017-12-17T15:46:38.688Z,3.75
2017-12-17T15:49:06.175Z,4.85
2017-12-17T15:51:33.858Z,2.62
2017-12-17T15:54:01.573Z,2.90
2017-12-17T15:56:29.268Z,3.35
2017-12-17T15:58:56.738Z,2.87
2017-12-17T16:01:24.232Z,2.65
2017-12-17T16:03:51.710Z,3.08
2017-12-17T16:06:19.295Z,3.00
2017-12-17T16:08:47.550Z,5.20
2017-12-17T16:11:15.946Z,3.28
2017-12-17T16:13:44.273Z,2.42
2017-12-17T16:16:11.767Z,3.28
2017-12-17T16:18:40.046Z,3.55
2017-12-17T16:21:08.299Z,3.53
2017-12-17T16:23:35.800Z,3.65
2017-12-17T16:26:03.274Z,3.45
2017-12-17T16:28:30.765Z,4.45
2017-12-17T16:31:00.478Z,2.72
2017-12-17T16:33:28.085Z,3.50
2017-12-17T16:35:55.592Z,4.43
2017-12-17T16:38:23.147Z,2.67
2017-12-17T16:40:50.639Z,4.68
2017-12-17T16:43:18.898Z,3.17
2017-12-17T16:45:46.428Z,3.28
2017-12-17T16:48:14.075Z,4.15
2017-12-17T16:50:41.730Z,4.25
2017-12-17T16:53:09.197Z,5.28
2017-12-17T16:55:36.678Z,5.43
2017-12-17T16:58:04.166Z,3.47
2017-12-17T17:00:32.433Z,6.18
2017-12-17T17:03:00.958Z,3.28
2017-12-17T17:05:28.460Z,3.90
2017-12-17T17:07:56.043Z,5.12
2017-12-17T17:10:24.404Z,3.60
2017-12-17T17:12:51.867Z,3.10
2017-12-17T17:15:20.145Z,3.28
2017-12-17T17:17:47.621Z,3.58
2017-12-17T17:20:15.118Z,4.30
2017-12-17T17:22:42.690Z,3.33
2017-12-17T17:25:10.279Z,3.97
2017-12-17T17:27:37.755Z,5.47
2017-12-17T17:30:05.250Z,3.53
2017-12-17T17:32:32.809Z,3.92
2017-12-17T17:35:00.597Z,14.87
2017-12-17T17:37:28.212Z,9.90
2017-12-17T17:39:55.745Z,6.00
2017-12-17T17:42:23.213Z,7.10
2017-12-17T17:44:50.704Z,7.82
2017-12-17T17:47:18.202Z,34.50
2017-12-17T17:49:46.542Z,6.43
2017-12-17T17:52:14.098Z,12.37
2017-12-17T17:54:41.734Z,13.18
2017-12-17T17:57:09.215Z,8.57
2017-12-17T17:59:36.689Z,12.48
2017-12-17T18:02:04.246Z,7.03
2017-12-17T18:04:31.899Z,7.00
2017-12-17T18:06:59.429Z,6.70
2017-12-17T18:09:26.933Z,10.80
2017-12-17T18:11:54.436Z,7.03
2017-12-17T18:14:21.908Z,6.37
2017-12-17T18:16:49.468Z,8.27
2017-12-17T18:19:17.213Z,6.25
2017-12-17T18:21:44.811Z,7.68
2017-12-17T18:24:12.299Z,6.20
2017-12-17T18:26:40.574Z,5.87
2017-12-17T18:29:08.845Z,6.00
2017-12-17T18:31:37.089Z,6.40
2017-12-17T18:34:04.586Z,6.62
2017-12-17T18:36:32.829Z,6.30
2017-12-17T18:39:00.582Z,6.93
2017-12-17T18:41:28.137Z,5.90
2017-12-17T18:43:55.606Z,6.43
2017-12-17T18:46:23.090Z,6.07
2017-12-17T18:48:51.355Z,5.85
2017-12-17T18:51:18.878Z,5.47
2017-12-17T18:53:46.350Z,6.93
2017-12-17T18:56:13.956Z,6.30
2017-12-17T18:58:41.475Z,5.75
2017-12-17T19:01:08.951Z,7.50
2017-12-17T19:03:37.213Z,6.57
2017-12-17T19:06:04.695Z,7.35
2017-12-17T19:08:33.140Z,7.57
2017-12-17T19:11:00.697Z,7.75
2017-12-17T19:13:28.271Z,8.00
2017-12-17T19:15:55.763Z,5.85
2017-12-17T19:18:23.252Z,5.70
2017-12-17T19:20:50.740Z,5.93
2017-12-17T19:23:18.246Z,5.40
2017-12-17T19:25:46.005Z,7.15
2017-12-17T19:28:13.547Z,6.75
2017-12-17T19:30:41.853Z,6.45
2017-12-17T19:33:09.394Z,8.13
2017-12-17T19:35:36.876Z,5.97
2017-12-17T19:38:04.369Z,6.28
2017-12-17T19:40:31.884Z,6.00
2017-12-17T19:42:59.552Z,5.68
2017-12-17T19:45:27.036Z,7.18
2017-12-17T19:47:54.535Z,7.60
2017-12-17T19:50:22.014Z,6.57
2017-12-17T19:52:49.526Z,6.60
2017-12-17T19:55:17.855Z,6.50
2017-12-17T19:57:45.598Z,7.07
2017-12-17T20:00:13.191Z,6.68
2017-12-17T20:02:40.678Z,8.82
2017-12-17T20:05:08.944Z,6.80
2017-12-17T20:07:36.426Z,7.80
2017-12-17T20:10:04.691Z,7.00
2017-12-17T20:12:32.945Z,6.82
2017-12-17T20:15:00.476Z,7.70
2017-12-17T20:17:27.972Z,8.60
2017-12-17T20:19:55.484Z,7.35
2017-12-17T20:22:22.985Z,6.82
2017-12-17T20:24:50.472Z,7.78
2017-12-17T20:27:17.981Z,6.18
2017-12-17T20:29:45.507Z,8.05
2017-12-17T20:32:13.098Z,6.87
2017-12-17T20:34:40.627Z,5.72
2017-12-17T20:37:08.058Z,5.90
2017-12-17T20:39:35.551Z,5.97
2017-12-17T20:42:03.218Z,7.10
2017-12-17T20:44:31.476Z,5.82
2017-12-17T20:46:59.315Z,5.62
2017-12-17T20:49:27.709Z,6.70
2017-12-17T20:51:55.257Z,6.75
2017-12-17T20:54:23.510Z,7.10
2017-12-17T20:56:51.765Z,8.18
2017-12-17T20:59:19.235Z,5.68
2017-12-17T21:01:46.730Z,7.05
2017-12-17T21:04:14.394Z,6.97
2017-12-17T21:06:41.864Z,6.78
2017-12-17T21:09:09.351Z,6.62
2017-12-17T21:11:36.837Z,7.00
2017-12-17T21:14:05.075Z,7.25
2017-12-17T21:16:32.570Z,6.50
2017-12-17T21:19:00.830Z,8.25
2017-12-17T21:21:28.458Z,7.12
2017-12-17T21:23:56.078Z,6.55
2017-12-17T21:26:23.575Z,6.90
2017-12-17T21:28:51.063Z,6.22
2017-12-17T21:31:18.931Z,7.50
2017-12-17T21:33:47.304Z,6.60
2017-12-17T21:36:14.890Z,6.68
2017-12-17T21:38:43.151Z,6.85
2017-12-17T21:41:11.756Z,7.30
2017-12-17T21:43:40.161Z,6.40
2017-12-17T21:46:07.676Z,6.25
2017-12-17T21:48:36.002Z,6.72
2017-12-17T21:51:03.505Z,6.70
2017-12-17T21:53:31.749Z,11.00
2017-12-17T21:55:59.248Z,7.37
2017-12-17T21:58:27.501Z,6.97
2017-12-17T22:00:54.973Z,7.47
2017-12-17T22:03:23.399Z,7.60
2017-12-17T22:05:50.890Z,9.65
2017-12-17T22:08:18.384Z,7.68
2017-12-17T22:10:46.651Z,7.57
2017-12-17T22:13:14.903Z,7.60
2017-12-17T22:15:42.419Z,8.25
2017-12-17T22:18:09.922Z,8.25
2017-12-17T22:20:37.491Z,8.27
2017-12-17T22:23:04.990Z,8.55
2017-12-17T22:25:32.479Z,23.00
2017-12-17T22:27:59.973Z,9.82
2017-12-17T22:30:28.263Z,10.98
2017-12-17T22:32:56.490Z,9.40
2017-12-17T22:35:24.059Z,8.35
2017-12-17T22:37:51.647Z,8.63
2017-12-17T22:40:19.979Z,9.82
2017-12-17T22:42:47.458Z,8.18
2017-12-17T22:45:14.962Z,9.27
2017-12-17T22:47:42.426Z,8.48
2017-12-17T22:50:09.950Z,8.70
2017-12-17T22:52:38.212Z,10.05
2017-12-17T22:55:05.716Z,11.40
2017-12-17T22:57:33.274Z,9.30
2017-12-17T23:00:00.750Z,7.78
2017-12-17T23:02:28.238Z,8.80
2017-12-17T23:04:55.722Z,6.57
2017-12-17T23:07:23.223Z,7.80
2017-12-17T23:09:50.776Z,5.85
2017-12-17T23:12:18.404Z,5.95
2017-12-17T23:14:46.676Z,6.40
2017-12-17T23:17:14.907Z,6.07
2017-12-17T23:19:43.159Z,5.20
2017-12-17T23:22:10.651Z,4.40
2017-12-17T23:24:38.130Z,4.47
2017-12-17T23:27:16.527Z,4.40
2017-12-17T23:29:44.767Z,4.30
2017-12-17T23:32:12.247Z,3.95
2017-12-17T23:34:39.790Z,4.18
2017-12-17T23:37:07.410Z,4.05
2017-12-17T23:39:35.010Z,4.03
2017-12-17T23:42:02.514Z,4.00
2017-12-17T23:44:30.010Z,4.25
2017-12-17T23:46:57.496Z,4.30
2017-12-17T23:49:25.015Z,4.40
2017-12-17T23:51:53.493Z,3.87
2017-12-17T23:54:21.150Z,4.20
2017-12-17T23:56:48.776Z,3.53
2017-12-17T23:59:17.022Z,6.35
